Aviation Digital Data Service (ADDS)

Output produced by TAFs form (2043 UTC 28 June 2017)
found at http://aviationweather.gov/adds/tafs/
 
KGJT 281751Z 2818/2918 25007KT P6SM FEW250 
     FM282200 27018G27KT P6SM FEW250 
     FM290400 25006KT P6SM FEW250 
     FM291300 06004KT P6SM SKC